sensor_id;sensor_type;location;lat;lon;timestamp;P1;durP1;ratioP1;P2;durP2;ratioP2
42846;SDS011;28495;49.916;14.536;2023-05-19T00:02:02;6.30;;;2.40;;
42846;SDS011;28495;49.916;14.536;2023-05-19T00:07:29;8.52;;;2.45;;
42846;SDS011;28495;49.916;14.536;2023-05-19T00:12:52;6.70;;;2.22;;
42846;SDS011;28495;49.916;14.536;2023-05-19T00:18:13;7.10;;;2.92;;
42846;SDS011;28495;49.916;14.536;2023-05-19T00:23:36;3.15;;;2.50;;
42846;SDS011;28495;49.916;14.536;2023-05-19T00:28:56;7.07;;;3.10;;
42846;SDS011;28495;49.916;14.536;2023-05-19T00:34:18;7.18;;;2.60;;
42846;SDS011;28495;49.916;14.536;2023-05-19T00:39:39;6.13;;;3.08;;
42846;SDS011;28495;49.916;14.536;2023-05-19T00:45:00;5.53;;;2.97;;
42846;SDS011;28495;49.916;14.536;2023-05-19T00:50:21;7.43;;;2.83;;
42846;SDS011;28495;49.916;14.536;2023-05-19T00:55:44;5.45;;;3.20;;
42846;SDS011;28495;49.916;14.536;2023-05-19T01:01:05;5.32;;;2.78;;
42846;SDS011;28495;49.916;14.536;2023-05-19T01:06:28;4.13;;;2.92;;
42846;SDS011;28495;49.916;14.536;2023-05-19T01:11:49;7.32;;;3.10;;
42846;SDS011;28495;49.916;14.536;2023-05-19T01:33:36;5.20;;;2.67;;
42846;SDS011;28495;49.916;14.536;2023-05-19T01:39:00;7.60;;;2.45;;
42846;SDS011;28495;49.916;14.536;2023-05-19T01:44:22;5.03;;;2.40;;
42846;SDS011;28495;49.916;14.536;2023-05-19T01:49:43;4.35;;;2.50;;
42846;SDS011;28495;49.916;14.536;2023-05-19T01:55:04;6.13;;;2.70;;
42846;SDS011;28495;49.916;14.536;2023-05-19T02:06:13;5.00;;;2.50;;
42846;SDS011;28495;49.916;14.536;2023-05-19T02:11:54;6.72;;;3.47;;
42846;SDS011;28495;49.916;14.536;2023-05-19T02:17:22;7.38;;;2.67;;
42846;SDS011;28495;49.916;14.536;2023-05-19T02:22:46;3.85;;;2.88;;
42846;SDS011;28495;49.916;14.536;2023-05-19T02:28:08;6.45;;;2.90;;
42846;SDS011;28495;49.916;14.536;2023-05-19T02:33:29;5.53;;;3.60;;
42846;SDS011;28495;49.916;14.536;2023-05-19T02:38:50;6.03;;;2.90;;
42846;SDS011;28495;49.916;14.536;2023-05-19T02:44:12;6.25;;;2.88;;
42846;SDS011;28495;49.916;14.536;2023-05-19T02:49:33;5.65;;;2.80;;
42846;SDS011;28495;49.916;14.536;2023-05-19T02:54:57;4.68;;;2.45;;
42846;SDS011;28495;49.916;14.536;2023-05-19T03:00:18;4.45;;;2.70;;
42846;SDS011;28495;49.916;14.536;2023-05-19T03:05:41;5.53;;;2.95;;
42846;SDS011;28495;49.916;14.536;2023-05-19T03:11:02;4.20;;;2.65;;
42846;SDS011;28495;49.916;14.536;2023-05-19T03:16:23;5.97;;;2.83;;
42846;SDS011;28495;49.916;14.536;2023-05-19T03:21:45;3.85;;;2.42;;
42846;SDS011;28495;49.916;14.536;2023-05-19T03:27:06;4.88;;;2.47;;
42846;SDS011;28495;49.916;14.536;2023-05-19T03:32:27;6.38;;;2.70;;
42846;SDS011;28495;49.916;14.536;2023-05-19T03:37:49;4.65;;;2.83;;
42846;SDS011;28495;49.916;14.536;2023-05-19T03:43:11;3.65;;;2.60;;
42846;SDS011;28495;49.916;14.536;2023-05-19T03:48:39;6.35;;;2.85;;
42846;SDS011;28495;49.916;14.536;2023-05-19T03:54:19;6.75;;;3.28;;
42846;SDS011;28495;49.916;14.536;2023-05-19T03:59:43;6.07;;;2.60;;
42846;SDS011;28495;49.916;14.536;2023-05-19T04:05:04;5.85;;;2.33;;
42846;SDS011;28495;49.916;14.536;2023-05-19T04:10:26;3.50;;;2.80;;
42846;SDS011;28495;49.916;14.536;2023-05-19T04:15:47;4.32;;;2.15;;
42846;SDS011;28495;49.916;14.536;2023-05-19T04:21:09;5.70;;;2.40;;
42846;SDS011;28495;49.916;14.536;2023-05-19T04:26:31;6.20;;;2.88;;
42846;SDS011;28495;49.916;14.536;2023-05-19T04:31:54;5.30;;;2.60;;
42846;SDS011;28495;49.916;14.536;2023-05-19T04:37:16;4.93;;;2.50;;
42846;SDS011;28495;49.916;14.536;2023-05-19T04:42:37;6.13;;;2.40;;
42846;SDS011;28495;49.916;14.536;2023-05-19T04:48:02;7.47;;;2.35;;
42846;SDS011;28495;49.916;14.536;2023-05-19T04:53:24;5.18;;;2.97;;
42846;SDS011;28495;49.916;14.536;2023-05-19T04:58:46;5.60;;;2.47;;
42846;SDS011;28495;49.916;14.536;2023-05-19T05:04:09;9.75;;;2.22;;
42846;SDS011;28495;49.916;14.536;2023-05-19T05:09:30;5.13;;;2.17;;
42846;SDS011;28495;49.916;14.536;2023-05-19T05:14:53;4.85;;;1.95;;
42846;SDS011;28495;49.916;14.536;2023-05-19T05:20:15;4.28;;;2.45;;
42846;SDS011;28495;49.916;14.536;2023-05-19T05:25:36;5.70;;;2.17;;
42846;SDS011;28495;49.916;14.536;2023-05-19T05:30:58;5.55;;;2.10;;
42846;SDS011;28495;49.916;14.536;2023-05-19T05:36:19;4.13;;;2.20;;
42846;SDS011;28495;49.916;14.536;2023-05-19T05:41:41;5.30;;;2.10;;
42846;SDS011;28495;49.916;14.536;2023-05-19T05:47:04;5.28;;;2.20;;
42846;SDS011;28495;49.916;14.536;2023-05-19T05:52:26;3.97;;;2.72;;
42846;SDS011;28495;49.916;14.536;2023-05-19T05:57:51;6.28;;;2.92;;
42846;SDS011;28495;49.916;14.536;2023-05-19T06:03:12;6.38;;;2.10;;
42846;SDS011;28495;49.916;14.536;2023-05-19T06:08:34;4.05;;;1.58;;
42846;SDS011;28495;49.916;14.536;2023-05-19T06:13:56;4.95;;;2.05;;
42846;SDS011;28495;49.916;14.536;2023-05-19T06:19:43;3.63;;;1.80;;
42846;SDS011;28495;49.916;14.536;2023-05-19T06:25:05;4.60;;;2.40;;
42846;SDS011;28495;49.916;14.536;2023-05-19T06:30:29;3.28;;;1.90;;
42846;SDS011;28495;49.916;14.536;2023-05-19T06:36:10;2.60;;;1.60;;
42846;SDS011;28495;49.916;14.536;2023-05-19T06:41:34;11.30;;;3.78;;
42846;SDS011;28495;49.916;14.536;2023-05-19T06:46:55;3.25;;;2.00;;
42846;SDS011;28495;49.916;14.536;2023-05-19T06:52:17;4.20;;;1.65;;
42846;SDS011;28495;49.916;14.536;2023-05-19T06:57:38;3.40;;;1.90;;
42846;SDS011;28495;49.916;14.536;2023-05-19T07:03:00;4.25;;;1.30;;
42846;SDS011;28495;49.916;14.536;2023-05-19T07:08:22;2.08;;;1.42;;
42846;SDS011;28495;49.916;14.536;2023-05-19T07:13:43;1.88;;;1.42;;
42846;SDS011;28495;49.916;14.536;2023-05-19T07:19:07;2.30;;;1.30;;
42846;SDS011;28495;49.916;14.536;2023-05-19T07:24:29;2.53;;;1.50;;
42846;SDS011;28495;49.916;14.536;2023-05-19T07:29:51;6.03;;;1.85;;
42846;SDS011;28495;49.916;14.536;2023-05-19T07:35:12;2.13;;;1.73;;
42846;SDS011;28495;49.916;14.536;2023-05-19T07:40:33;2.60;;;1.75;;
42846;SDS011;28495;49.916;14.536;2023-05-19T07:45:55;8.70;;;1.80;;
42846;SDS011;28495;49.916;14.536;2023-05-19T07:51:15;3.55;;;1.75;;
42846;SDS011;28495;49.916;14.536;2023-05-19T07:56:37;3.17;;;2.00;;
42846;SDS011;28495;49.916;14.536;2023-05-19T08:01:57;5.13;;;2.20;;
42846;SDS011;28495;49.916;14.536;2023-05-19T08:07:19;2.22;;;1.50;;
42846;SDS011;28495;49.916;14.536;2023-05-19T08:12:40;1.85;;;1.40;;
42846;SDS011;28495;49.916;14.536;2023-05-19T08:18:00;3.08;;;1.50;;
42846;SDS011;28495;49.916;14.536;2023-05-19T08:23:22;4.10;;;2.10;;
42846;SDS011;28495;49.916;14.536;2023-05-19T08:28:43;2.67;;;1.85;;
42846;SDS011;28495;49.916;14.536;2023-05-19T08:34:04;3.67;;;2.00;;
42846;SDS011;28495;49.916;14.536;2023-05-19T08:39:25;4.30;;;1.95;;
42846;SDS011;28495;49.916;14.536;2023-05-19T08:44:46;2.28;;;1.20;;
42846;SDS011;28495;49.916;14.536;2023-05-19T08:50:07;3.08;;;1.85;;
42846;SDS011;28495;49.916;14.536;2023-05-19T08:55:35;3.75;;;1.48;;
42846;SDS011;28495;49.916;14.536;2023-05-19T09:01:04;5.93;;;1.83;;
42846;SDS011;28495;49.916;14.536;2023-05-19T09:06:26;4.47;;;2.00;;
42846;SDS011;28495;49.916;14.536;2023-05-19T09:11:47;2.50;;;1.50;;
42846;SDS011;28495;49.916;14.536;2023-05-19T09:17:08;2.10;;;1.55;;
42846;SDS011;28495;49.916;14.536;2023-05-19T09:22:30;2.28;;;1.30;;
42846;SDS011;28495;49.916;14.536;2023-05-19T09:27:55;2.60;;;1.80;;
42846;SDS011;28495;49.916;14.536;2023-05-19T09:33:18;3.22;;;1.30;;
42846;SDS011;28495;49.916;14.536;2023-05-19T09:38:39;2.50;;;1.58;;
42846;SDS011;28495;49.916;14.536;2023-05-19T09:44:01;3.50;;;1.48;;
42846;SDS011;28495;49.916;14.536;2023-05-19T09:49:22;2.42;;;1.48;;
42846;SDS011;28495;49.916;14.536;2023-05-19T09:54:45;2.08;;;1.60;;
42846;SDS011;28495;49.916;14.536;2023-05-19T10:00:08;2.33;;;1.88;;
42846;SDS011;28495;49.916;14.536;2023-05-19T10:05:39;3.28;;;2.13;;
42846;SDS011;28495;49.916;14.536;2023-05-19T10:11:01;2.03;;;1.63;;
42846;SDS011;28495;49.916;14.536;2023-05-19T10:16:23;3.63;;;2.03;;
42846;SDS011;28495;49.916;14.536;2023-05-19T10:21:46;2.85;;;2.50;;
42846;SDS011;28495;49.916;14.536;2023-05-19T10:27:07;2.30;;;1.67;;
42846;SDS011;28495;49.916;14.536;2023-05-19T10:32:31;3.10;;;1.80;;
42846;SDS011;28495;49.916;14.536;2023-05-19T10:43:48;4.85;;;1.88;;
42846;SDS011;28495;49.916;14.536;2023-05-19T10:49:18;2.15;;;1.38;;
42846;SDS011;28495;49.916;14.536;2023-05-19T10:54:43;2.70;;;2.22;;
42846;SDS011;28495;49.916;14.536;2023-05-19T11:00:25;2.25;;;1.85;;
42846;SDS011;28495;49.916;14.536;2023-05-19T11:05:48;1.55;;;1.30;;
42846;SDS011;28495;49.916;14.536;2023-05-19T11:11:15;2.92;;;1.90;;
42846;SDS011;28495;49.916;14.536;2023-05-19T11:16:38;3.17;;;1.73;;
42846;SDS011;28495;49.916;14.536;2023-05-19T11:27:33;3.58;;;1.33;;
42846;SDS011;28495;49.916;14.536;2023-05-19T11:32:57;2.28;;;1.73;;
42846;SDS011;28495;49.916;14.536;2023-05-19T11:38:19;2.72;;;1.60;;
42846;SDS011;28495;49.916;14.536;2023-05-19T11:43:41;1.63;;;1.25;;
42846;SDS011;28495;49.916;14.536;2023-05-19T11:49:03;5.10;;;1.52;;
42846;SDS011;28495;49.916;14.536;2023-05-19T11:54:32;2.25;;;1.48;;
42846;SDS011;28495;49.916;14.536;2023-05-19T11:59:56;1.00;;;0.90;;
42846;SDS011;28495;49.916;14.536;2023-05-19T12:05:24;2.47;;;1.73;;
42846;SDS011;28495;49.916;14.536;2023-05-19T12:10:47;1.40;;;1.30;;
42846;SDS011;28495;49.916;14.536;2023-05-19T12:16:12;1.75;;;1.30;;
42846;SDS011;28495;49.916;14.536;2023-05-19T12:21:33;2.47;;;1.52;;
42846;SDS011;28495;49.916;14.536;2023-05-19T12:32:48;3.92;;;2.05;;
42846;SDS011;28495;49.916;14.536;2023-05-19T12:38:12;2.63;;;1.55;;
42846;SDS011;28495;49.916;14.536;2023-05-19T12:43:36;2.03;;;1.48;;
42846;SDS011;28495;49.916;14.536;2023-05-19T12:48:59;1.40;;;1.30;;
42846;SDS011;28495;49.916;14.536;2023-05-19T12:54:20;2.22;;;1.75;;
42846;SDS011;28495;49.916;14.536;2023-05-19T12:59:42;2.15;;;1.35;;
42846;SDS011;28495;49.916;14.536;2023-05-19T13:05:03;1.25;;;1.15;;
42846;SDS011;28495;49.916;14.536;2023-05-19T13:10:25;2.38;;;1.27;;
42846;SDS011;28495;49.916;14.536;2023-05-19T13:15:47;2.17;;;1.50;;
42846;SDS011;28495;49.916;14.536;2023-05-19T13:21:09;1.45;;;1.10;;
42846;SDS011;28495;49.916;14.536;2023-05-19T13:26:30;2.78;;;1.38;;
42846;SDS011;28495;49.916;14.536;2023-05-19T13:31:51;1.40;;;1.17;;
42846;SDS011;28495;49.916;14.536;2023-05-19T13:37:12;3.28;;;2.45;;
42846;SDS011;28495;49.916;14.536;2023-05-19T13:42:33;2.70;;;1.58;;
42846;SDS011;28495;49.916;14.536;2023-05-19T13:47:55;4.45;;;1.95;;
42846;SDS011;28495;49.916;14.536;2023-05-19T13:53:16;5.47;;;1.95;;
42846;SDS011;28495;49.916;14.536;2023-05-19T13:58:37;3.20;;;1.98;;
42846;SDS011;28495;49.916;14.536;2023-05-19T14:03:58;1.85;;;1.50;;
42846;SDS011;28495;49.916;14.536;2023-05-19T14:09:20;1.50;;;1.40;;
42846;SDS011;28495;49.916;14.536;2023-05-19T14:14:41;2.40;;;1.50;;
42846;SDS011;28495;49.916;14.536;2023-05-19T14:20:02;1.67;;;1.58;;
42846;SDS011;28495;49.916;14.536;2023-05-19T14:25:24;1.92;;;1.55;;
42846;SDS011;28495;49.916;14.536;2023-05-19T14:30:44;3.83;;;2.17;;
42846;SDS011;28495;49.916;14.536;2023-05-19T14:36:06;3.20;;;1.80;;
42846;SDS011;28495;49.916;14.536;2023-05-19T14:41:28;1.85;;;1.60;;
42846;SDS011;28495;49.916;14.536;2023-05-19T14:46:50;2.35;;;1.75;;
42846;SDS011;28495;49.916;14.536;2023-05-19T14:52:11;2.25;;;1.75;;
42846;SDS011;28495;49.916;14.536;2023-05-19T14:57:31;1.98;;;1.40;;
42846;SDS011;28495;49.916;14.536;2023-05-19T15:02:53;6.35;;;3.05;;
42846;SDS011;28495;49.916;14.536;2023-05-19T15:08:14;3.90;;;2.30;;
42846;SDS011;28495;49.916;14.536;2023-05-19T15:13:35;2.33;;;1.83;;
42846;SDS011;28495;49.916;14.536;2023-05-19T15:18:56;2.55;;;2.30;;
42846;SDS011;28495;49.916;14.536;2023-05-19T15:24:17;4.15;;;2.20;;
42846;SDS011;28495;49.916;14.536;2023-05-19T15:29:38;3.42;;;1.83;;
42846;SDS011;28495;49.916;14.536;2023-05-19T15:34:59;5.00;;;2.35;;
42846;SDS011;28495;49.916;14.536;2023-05-19T15:40:20;3.80;;;1.50;;
42846;SDS011;28495;49.916;14.536;2023-05-19T15:45:41;3.83;;;2.45;;
42846;SDS011;28495;49.916;14.536;2023-05-19T15:51:02;2.72;;;2.03;;
42846;SDS011;28495;49.916;14.536;2023-05-19T15:56:23;3.92;;;2.78;;
42846;SDS011;28495;49.916;14.536;2023-05-19T16:01:44;4.70;;;2.45;;
42846;SDS011;28495;49.916;14.536;2023-05-19T16:07:05;3.47;;;1.77;;
42846;SDS011;28495;49.916;14.536;2023-05-19T16:12:26;2.50;;;1.90;;
42846;SDS011;28495;49.916;14.536;2023-05-19T16:17:48;2.33;;;2.13;;
42846;SDS011;28495;49.916;14.536;2023-05-19T16:23:09;2.30;;;1.83;;
42846;SDS011;28495;49.916;14.536;2023-05-19T16:28:30;4.70;;;1.88;;
42846;SDS011;28495;49.916;14.536;2023-05-19T16:33:52;13.32;;;9.27;;
42846;SDS011;28495;49.916;14.536;2023-05-19T16:39:13;15.07;;;8.30;;
42846;SDS011;28495;49.916;14.536;2023-05-19T16:44:35;31.70;;;12.70;;
42846;SDS011;28495;49.916;14.536;2023-05-19T16:49:55;7.65;;;4.28;;
42846;SDS011;28495;49.916;14.536;2023-05-19T16:55:16;4.25;;;2.58;;
42846;SDS011;28495;49.916;14.536;2023-05-19T17:00:39;14.75;;;8.43;;
42846;SDS011;28495;49.916;14.536;2023-05-19T17:06:00;8.70;;;6.30;;
42846;SDS011;28495;49.916;14.536;2023-05-19T17:11:21;11.65;;;8.70;;
42846;SDS011;28495;49.916;14.536;2023-05-19T17:16:42;5.43;;;4.47;;
42846;SDS011;28495;49.916;14.536;2023-05-19T17:22:03;6.15;;;3.67;;
42846;SDS011;28495;49.916;14.536;2023-05-19T17:27:24;6.05;;;3.95;;
42846;SDS011;28495;49.916;14.536;2023-05-19T17:32:45;5.07;;;3.78;;
42846;SDS011;28495;49.916;14.536;2023-05-19T17:38:07;4.03;;;3.30;;
42846;SDS011;28495;49.916;14.536;2023-05-19T17:43:28;3.42;;;3.05;;
42846;SDS011;28495;49.916;14.536;2023-05-19T17:48:49;3.72;;;2.95;;
42846;SDS011;28495;49.916;14.536;2023-05-19T17:54:10;5.40;;;3.75;;
42846;SDS011;28495;49.916;14.536;2023-05-19T17:59:31;4.45;;;3.20;;
42846;SDS011;28495;49.916;14.536;2023-05-19T18:04:53;3.83;;;2.90;;
42846;SDS011;28495;49.916;14.536;2023-05-19T18:10:15;4.30;;;3.25;;
42846;SDS011;28495;49.916;14.536;2023-05-19T18:15:36;4.15;;;3.38;;
42846;SDS011;28495;49.916;14.536;2023-05-19T18:20:58;6.00;;;3.70;;
42846;SDS011;28495;49.916;14.536;2023-05-19T18:26:19;3.78;;;3.00;;
42846;SDS011;28495;49.916;14.536;2023-05-19T18:31:40;5.28;;;3.95;;
42846;SDS011;28495;49.916;14.536;2023-05-19T18:37:04;4.97;;;3.60;;
42846;SDS011;28495;49.916;14.536;2023-05-19T18:42:25;5.03;;;3.60;;
42846;SDS011;28495;49.916;14.536;2023-05-19T18:47:46;5.32;;;3.80;;
42846;SDS011;28495;49.916;14.536;2023-05-19T18:53:07;5.10;;;3.67;;
42846;SDS011;28495;49.916;14.536;2023-05-19T18:58:27;6.00;;;4.35;;
42846;SDS011;28495;49.916;14.536;2023-05-19T19:03:48;8.57;;;6.20;;
42846;SDS011;28495;49.916;14.536;2023-05-19T19:09:10;6.00;;;5.03;;
42846;SDS011;28495;49.916;14.536;2023-05-19T19:14:30;8.73;;;5.85;;
42846;SDS011;28495;49.916;14.536;2023-05-19T19:19:51;6.25;;;4.70;;
42846;SDS011;28495;49.916;14.536;2023-05-19T19:25:13;6.55;;;5.18;;
42846;SDS011;28495;49.916;14.536;2023-05-19T19:30:34;9.25;;;5.53;;
42846;SDS011;28495;49.916;14.536;2023-05-19T19:35:56;7.35;;;4.95;;
42846;SDS011;28495;49.916;14.536;2023-05-19T19:41:17;6.97;;;5.05;;
42846;SDS011;28495;49.916;14.536;2023-05-19T19:46:39;6.00;;;4.20;;
42846;SDS011;28495;49.916;14.536;2023-05-19T19:52:00;10.57;;;5.10;;
42846;SDS011;28495;49.916;14.536;2023-05-19T19:57:22;7.75;;;5.32;;
42846;SDS011;28495;49.916;14.536;2023-05-19T20:02:43;6.90;;;4.45;;
42846;SDS011;28495;49.916;14.536;2023-05-19T20:08:23;9.15;;;6.18;;
42846;SDS011;28495;49.916;14.536;2023-05-19T20:13:45;9.07;;;6.82;;
42846;SDS011;28495;49.916;14.536;2023-05-19T20:19:06;8.25;;;6.03;;
42846;SDS011;28495;49.916;14.536;2023-05-19T20:24:28;11.10;;;5.85;;
42846;SDS011;28495;49.916;14.536;2023-05-19T20:29:49;10.15;;;5.85;;
42846;SDS011;28495;49.916;14.536;2023-05-19T20:35:10;11.10;;;7.03;;
42846;SDS011;28495;49.916;14.536;2023-05-19T20:40:32;10.93;;;6.90;;
42846;SDS011;28495;49.916;14.536;2023-05-19T20:45:56;9.18;;;6.05;;
42846;SDS011;28495;49.916;14.536;2023-05-19T20:51:17;11.07;;;6.75;;
42846;SDS011;28495;49.916;14.536;2023-05-19T20:56:40;11.02;;;7.97;;
42846;SDS011;28495;49.916;14.536;2023-05-19T21:02:01;10.38;;;7.13;;
42846;SDS011;28495;49.916;14.536;2023-05-19T21:07:23;9.98;;;7.35;;
42846;SDS011;28495;49.916;14.536;2023-05-19T21:12:45;10.38;;;6.55;;
42846;SDS011;28495;49.916;14.536;2023-05-19T21:18:06;9.88;;;7.00;;
42846;SDS011;28495;49.916;14.536;2023-05-19T21:23:27;10.82;;;7.20;;
42846;SDS011;28495;49.916;14.536;2023-05-19T21:28:48;10.13;;;7.07;;
42846;SDS011;28495;49.916;14.536;2023-05-19T21:34:09;11.55;;;7.85;;
42846;SDS011;28495;49.916;14.536;2023-05-19T21:39:30;11.85;;;7.68;;
42846;SDS011;28495;49.916;14.536;2023-05-19T21:44:51;11.85;;;7.70;;
42846;SDS011;28495;49.916;14.536;2023-05-19T21:50:15;10.48;;;6.95;;
42846;SDS011;28495;49.916;14.536;2023-05-19T21:55:37;13.75;;;8.75;;
42846;SDS011;28495;49.916;14.536;2023-05-19T22:00:58;12.43;;;8.00;;
42846;SDS011;28495;49.916;14.536;2023-05-19T22:06:20;12.73;;;7.00;;
42846;SDS011;28495;49.916;14.536;2023-05-19T22:11:41;9.27;;;6.28;;
42846;SDS011;28495;49.916;14.536;2023-05-19T22:17:02;9.90;;;6.63;;
42846;SDS011;28495;49.916;14.536;2023-05-19T22:22:23;12.63;;;7.90;;
42846;SDS011;28495;49.916;14.536;2023-05-19T22:27:44;14.10;;;9.18;;
42846;SDS011;28495;49.916;14.536;2023-05-19T22:33:06;11.95;;;8.80;;
42846;SDS011;28495;49.916;14.536;2023-05-19T22:38:28;12.93;;;8.68;;
42846;SDS011;28495;49.916;14.536;2023-05-19T22:43:49;12.70;;;8.23;;
42846;SDS011;28495;49.916;14.536;2023-05-19T22:49:10;11.07;;;7.35;;
42846;SDS011;28495;49.916;14.536;2023-05-19T22:54:33;11.13;;;8.02;;
42846;SDS011;28495;49.916;14.536;2023-05-19T22:59:54;10.13;;;7.13;;
42846;SDS011;28495;49.916;14.536;2023-05-19T23:05:15;14.00;;;8.98;;
42846;SDS011;28495;49.916;14.536;2023-05-19T23:10:36;13.00;;;7.68;;
42846;SDS011;28495;49.916;14.536;2023-05-19T23:15:58;13.82;;;9.13;;
42846;SDS011;28495;49.916;14.536;2023-05-19T23:21:18;17.90;;;9.55;;
42846;SDS011;28495;49.916;14.536;2023-05-19T23:26:43;16.65;;;11.10;;
42846;SDS011;28495;49.916;14.536;2023-05-19T23:32:03;13.77;;;9.77;;
42846;SDS011;28495;49.916;14.536;2023-05-19T23:37:25;15.60;;;9.27;;
42846;SDS011;28495;49.916;14.536;2023-05-19T23:42:45;14.60;;;8.65;;
42846;SDS011;28495;49.916;14.536;2023-05-19T23:48:06;13.75;;;8.98;;
42846;SDS011;28495;49.916;14.536;2023-05-19T23:53:27;14.35;;;9.35;;
42846;SDS011;28495;49.916;14.536;2023-05-19T23:58:48;18.50;;;10.15;;
